sensor_id;sensor_type;location;lat;lon;timestamp;pressure;altitude;pressure_sealevel;temperature;humidity
21706;BME280;11014;53.076;18.208;2024-01-30T00:02:23;102867.06;;;2.72;67.62
21706;BME280;11014;53.076;18.208;2024-01-30T00:04:52;102867.53;;;2.66;67.82
21706;BME280;11014;53.076;18.208;2024-01-30T00:07:20;102866.38;;;2.59;68.04
21706;BME280;11014;53.076;18.208;2024-01-30T00:09:49;102868.56;;;2.54;67.97
21706;BME280;11014;53.076;18.208;2024-01-30T00:12:18;102866.16;;;2.51;68.10
21706;BME280;11014;53.076;18.208;2024-01-30T00:14:48;102865.53;;;2.47;68.10
21706;BME280;11014;53.076;18.208;2024-01-30T00:17:21;102858.69;;;2.45;68.25
21706;BME280;11014;53.076;18.208;2024-01-30T00:19:50;102854.69;;;2.39;68.22
21706;BME280;11014;53.076;18.208;2024-01-30T00:22:19;102853.16;;;2.36;68.48
21706;BME280;11014;53.076;18.208;2024-01-30T00:24:47;102854.34;;;2.32;68.18
21706;BME280;11014;53.076;18.208;2024-01-30T00:27:16;102855.44;;;2.30;68.50
21706;BME280;11014;53.076;18.208;2024-01-30T00:29:45;102857.59;;;2.25;68.45
21706;BME280;11014;53.076;18.208;2024-01-30T00:32:13;102863.06;;;2.23;68.31
21706;BME280;11014;53.076;18.208;2024-01-30T00:34:42;102861.25;;;2.24;68.26
21706;BME280;11014;53.076;18.208;2024-01-30T00:37:11;102854.25;;;2.23;68.46
21706;BME280;11014;53.076;18.208;2024-01-30T00:39:40;102849.19;;;2.20;68.26
21706;BME280;11014;53.076;18.208;2024-01-30T00:42:08;102845.81;;;2.18;68.29
21706;BME280;11014;53.076;18.208;2024-01-30T00:44:37;102846.16;;;2.13;68.05
21706;BME280;11014;53.076;18.208;2024-01-30T00:47:06;102835.69;;;2.12;68.26
21706;BME280;11014;53.076;18.208;2024-01-30T00:49:36;102845.44;;;2.11;68.27
21706;BME280;11014;53.076;18.208;2024-01-30T00:52:05;102845.44;;;2.11;68.39
21706;BME280;11014;53.076;18.208;2024-01-30T00:54:34;102841.00;;;2.12;68.34
21706;BME280;11014;53.076;18.208;2024-01-30T00:57:03;102851.59;;;2.12;68.09
21706;BME280;11014;53.076;18.208;2024-01-30T00:59:31;102856.28;;;2.08;68.29
21706;BME280;11014;53.076;18.208;2024-01-30T01:02:00;102853.78;;;2.07;68.11
21706;BME280;11014;53.076;18.208;2024-01-30T01:04:29;102847.00;;;2.03;68.27
21706;BME280;11014;53.076;18.208;2024-01-30T01:06:58;102852.69;;;1.98;68.36
21706;BME280;11014;53.076;18.208;2024-01-30T01:09:27;102844.03;;;1.96;68.36
21706;BME280;11014;53.076;18.208;2024-01-30T01:11:55;102847.53;;;1.97;68.25
21706;BME280;11014;53.076;18.208;2024-01-30T01:14:24;102843.28;;;1.94;68.37
21706;BME280;11014;53.076;18.208;2024-01-30T01:16:53;102846.91;;;1.93;68.22
21706;BME280;11014;53.076;18.208;2024-01-30T01:19:21;102841.84;;;1.90;68.26
21706;BME280;11014;53.076;18.208;2024-01-30T01:21:50;102831.25;;;1.90;68.36
21706;BME280;11014;53.076;18.208;2024-01-30T01:24:19;102833.91;;;1.90;68.49
21706;BME280;11014;53.076;18.208;2024-01-30T01:26:48;102825.09;;;1.90;68.40
21706;BME280;11014;53.076;18.208;2024-01-30T01:29:16;102830.53;;;1.88;68.62
21706;BME280;11014;53.076;18.208;2024-01-30T01:31:46;102834.00;;;1.89;68.57
21706;BME280;11014;53.076;18.208;2024-01-30T01:34:15;102831.25;;;1.90;68.43
21706;BME280;11014;53.076;18.208;2024-01-30T01:36:44;102831.00;;;1.93;68.38
21706;BME280;11014;53.076;18.208;2024-01-30T01:39:12;102818.72;;;1.92;68.31
21706;BME280;11014;53.076;18.208;2024-01-30T01:41:41;102819.69;;;1.91;68.21
21706;BME280;11014;53.076;18.208;2024-01-30T01:44:10;102827.88;;;1.88;68.30
21706;BME280;11014;53.076;18.208;2024-01-30T01:46:39;102830.75;;;1.85;68.02
21706;BME280;11014;53.076;18.208;2024-01-30T01:49:07;102825.56;;;1.84;68.20
21706;BME280;11014;53.076;18.208;2024-01-30T01:51:37;102828.13;;;1.85;68.23
21706;BME280;11014;53.076;18.208;2024-01-30T01:54:10;102827.25;;;1.85;68.25
21706;BME280;11014;53.076;18.208;2024-01-30T01:56:40;102829.06;;;1.84;67.95
21706;BME280;11014;53.076;18.208;2024-01-30T01:59:09;102829.19;;;1.83;67.94
21706;BME280;11014;53.076;18.208;2024-01-30T02:01:39;102820.50;;;1.80;67.90
21706;BME280;11014;53.076;18.208;2024-01-30T02:04:11;102824.00;;;1.81;67.86
21706;BME280;11014;53.076;18.208;2024-01-30T02:06:41;102824.13;;;1.79;68.10
21706;BME280;11014;53.076;18.208;2024-01-30T02:09:09;102829.53;;;1.78;68.09
21706;BME280;11014;53.076;18.208;2024-01-30T02:11:38;102831.25;;;1.79;67.92
21706;BME280;11014;53.076;18.208;2024-01-30T02:14:09;102832.19;;;1.78;67.99
21706;BME280;11014;53.076;18.208;2024-01-30T02:16:37;102829.53;;;1.78;67.87
21706;BME280;11014;53.076;18.208;2024-01-30T02:19:06;102834.13;;;1.76;67.89
21706;BME280;11014;53.076;18.208;2024-01-30T02:21:36;102836.06;;;1.74;67.63
21706;BME280;11014;53.076;18.208;2024-01-30T02:24:05;102832.69;;;1.72;67.93
21706;BME280;11014;53.076;18.208;2024-01-30T02:26:34;102824.00;;;1.70;67.70
21706;BME280;11014;53.076;18.208;2024-01-30T02:29:03;102831.09;;;1.69;67.69
21706;BME280;11014;53.076;18.208;2024-01-30T02:31:32;102831.22;;;1.68;67.78
21706;BME280;11014;53.076;18.208;2024-01-30T02:34:00;102826.88;;;1.67;67.64
21706;BME280;11014;53.076;18.208;2024-01-30T02:36:30;102832.31;;;1.65;67.59
21706;BME280;11014;53.076;18.208;2024-01-30T02:38:58;102824.50;;;1.64;67.84
21706;BME280;11014;53.076;18.208;2024-01-30T02:41:27;102822.81;;;1.63;67.50
21706;BME280;11014;53.076;18.208;2024-01-30T02:43:56;102825.56;;;1.61;67.57
21706;BME280;11014;53.076;18.208;2024-01-30T02:46:24;102823.97;;;1.59;67.47
21706;BME280;11014;53.076;18.208;2024-01-30T02:48:53;102825.81;;;1.58;67.56
21706;BME280;11014;53.076;18.208;2024-01-30T02:51:24;102824.25;;;1.78;67.55
21706;BME280;11014;53.076;18.208;2024-01-30T02:53:53;102825.19;;;1.55;67.55
21706;BME280;11014;53.076;18.208;2024-01-30T02:56:22;102827.38;;;1.50;67.31
21706;BME280;11014;53.076;18.208;2024-01-30T02:58:50;102831.09;;;1.47;67.55
21706;BME280;11014;53.076;18.208;2024-01-30T03:01:19;102821.44;;;1.46;67.87
21706;BME280;11014;53.076;18.208;2024-01-30T03:03:48;102821.44;;;1.46;67.64
21706;BME280;11014;53.076;18.208;2024-01-30T03:06:17;102819.53;;;1.48;67.73
21706;BME280;11014;53.076;18.208;2024-01-30T03:08:48;102817.72;;;1.49;67.74
21706;BME280;11014;53.076;18.208;2024-01-30T03:11:17;102810.72;;;1.48;67.75
21706;BME280;11014;53.076;18.208;2024-01-30T03:13:45;102814.13;;;1.50;67.86
21706;BME280;11014;53.076;18.208;2024-01-30T03:16:14;102806.19;;;1.50;67.73
21706;BME280;11014;53.076;18.208;2024-01-30T03:18:42;102808.81;;;1.50;67.57
21706;BME280;11014;53.076;18.208;2024-01-30T03:21:11;102819.41;;;1.50;67.65
21706;BME280;11014;53.076;18.208;2024-01-30T03:23:40;102816.78;;;1.50;67.79
21706;BME280;11014;53.076;18.208;2024-01-30T03:26:09;102821.09;;;1.51;67.40
21706;BME280;11014;53.076;18.208;2024-01-30T03:28:39;102820.13;;;1.52;67.73
21706;BME280;11014;53.076;18.208;2024-01-30T03:31:08;102819.28;;;1.51;67.73
21706;BME280;11014;53.076;18.208;2024-01-30T03:33:37;102824.47;;;1.53;67.60
21706;BME280;11014;53.076;18.208;2024-01-30T03:36:07;102817.34;;;1.53;67.70
21706;BME280;11014;53.076;18.208;2024-01-30T03:38:35;102815.56;;;1.54;67.55
21706;BME280;11014;53.076;18.208;2024-01-30T03:41:08;102813.63;;;1.56;67.64
21706;BME280;11014;53.076;18.208;2024-01-30T03:43:37;102811.72;;;1.58;67.71
21706;BME280;11014;53.076;18.208;2024-01-30T03:46:06;102817.75;;;1.60;67.46
21706;BME280;11014;53.076;18.208;2024-01-30T03:48:35;102817.50;;;1.63;67.68
21706;BME280;11014;53.076;18.208;2024-01-30T03:51:03;102816.56;;;1.64;67.42
21706;BME280;11014;53.076;18.208;2024-01-30T03:53:32;102815.56;;;1.65;67.61
21706;BME280;11014;53.076;18.208;2024-01-30T03:56:01;102813.63;;;1.67;67.49
21706;BME280;11014;53.076;18.208;2024-01-30T03:58:30;102816.19;;;1.68;67.42
21706;BME280;11014;53.076;18.208;2024-01-30T04:00:59;102811.50;;;1.72;67.38
21706;BME280;11014;53.076;18.208;2024-01-30T04:03:28;102814.88;;;1.74;67.52
21706;BME280;11014;53.076;18.208;2024-01-30T04:05:57;102815.72;;;1.74;67.37
21706;BME280;11014;53.076;18.208;2024-01-30T04:08:25;102821.00;;;1.74;67.44
21706;BME280;11014;53.076;18.208;2024-01-30T04:10:55;102812.22;;;1.74;67.38
21706;BME280;11014;53.076;18.208;2024-01-30T04:13:23;102823.53;;;1.76;67.58
21706;BME280;11014;53.076;18.208;2024-01-30T04:15:52;102820.16;;;1.74;67.47
21706;BME280;11014;53.076;18.208;2024-01-30T04:18:22;102818.69;;;1.70;67.54
21706;BME280;11014;53.076;18.208;2024-01-30T04:20:51;102818.22;;;1.65;67.99
21706;BME280;11014;53.076;18.208;2024-01-30T04:23:20;102820.88;;;1.65;68.00
21706;BME280;11014;53.076;18.208;2024-01-30T04:25:49;102810.28;;;1.65;67.71
21706;BME280;11014;53.076;18.208;2024-01-30T04:28:18;102814.47;;;1.67;67.75
21706;BME280;11014;53.076;18.208;2024-01-30T04:30:47;102805.34;;;1.71;67.71
21706;BME280;11014;53.076;18.208;2024-01-30T04:33:16;102803.41;;;1.73;67.75
21706;BME280;11014;53.076;18.208;2024-01-30T04:35:47;102807.63;;;1.76;67.84
21706;BME280;11014;53.076;18.208;2024-01-30T04:38:15;102805.94;;;1.75;67.40
21706;BME280;11014;53.076;18.208;2024-01-30T04:40:44;102805.94;;;1.75;67.53
21706;BME280;11014;53.076;18.208;2024-01-30T04:43:12;102805.69;;;1.78;67.85
21706;BME280;11014;53.076;18.208;2024-01-30T04:45:41;102810.88;;;1.79;67.63
21706;BME280;11014;53.076;18.208;2024-01-30T04:48:10;102808.25;;;1.79;67.88
21706;BME280;11014;53.076;18.208;2024-01-30T04:50:39;102810.88;;;1.79;67.88
21706;BME280;11014;53.076;18.208;2024-01-30T04:53:07;102820.41;;;1.82;67.77
21706;BME280;11014;53.076;18.208;2024-01-30T04:55:36;102811.50;;;1.83;67.66
21706;BME280;11014;53.076;18.208;2024-01-30T04:58:04;102818.38;;;1.86;67.63
21706;BME280;11014;53.076;18.208;2024-01-30T05:00:33;102816.44;;;1.88;67.62
21706;BME280;11014;53.076;18.208;2024-01-30T05:03:02;102814.72;;;1.87;67.78
21706;BME280;11014;53.076;18.208;2024-01-30T05:05:31;102818.38;;;1.86;67.81
21706;BME280;11014;53.076;18.208;2024-01-30T05:07:59;102815.56;;;1.87;67.92
21706;BME280;11014;53.076;18.208;2024-01-30T05:10:32;102811.75;;;1.91;67.80
21706;BME280;11014;53.076;18.208;2024-01-30T05:13:00;102816.78;;;1.94;67.92
21706;BME280;11014;53.076;18.208;2024-01-30T05:15:29;102811.47;;;1.94;67.64
21706;BME280;11014;53.076;18.208;2024-01-30T05:17:58;102811.22;;;1.97;67.70
21706;BME280;11014;53.076;18.208;2024-01-30T05:20:27;102802.31;;;1.98;67.94
21706;BME280;11014;53.076;18.208;2024-01-30T05:22:58;102800.38;;;2.00;67.90
21706;BME280;11014;53.076;18.208;2024-01-30T05:25:26;102801.84;;;2.04;67.96
21706;BME280;11014;53.076;18.208;2024-01-30T05:27:55;102801.59;;;2.07;67.71
21706;BME280;11014;53.076;18.208;2024-01-30T05:30:24;102804.00;;;2.10;67.72
21706;BME280;11014;53.076;18.208;2024-01-30T05:32:52;102806.38;;;2.13;67.75
21706;BME280;11014;53.076;18.208;2024-01-30T05:35:21;102806.16;;;2.16;67.95
21706;BME280;11014;53.076;18.208;2024-01-30T05:37:50;102808.47;;;2.21;67.83
21706;BME280;11014;53.076;18.208;2024-01-30T05:40:19;102809.03;;;2.24;67.77
21706;BME280;11014;53.076;18.208;2024-01-30T05:42:48;102812.41;;;2.26;67.90
21706;BME280;11014;53.076;18.208;2024-01-30T05:45:16;102815.78;;;2.28;67.76
21706;BME280;11014;53.076;18.208;2024-01-30T05:47:45;102820.59;;;2.34;68.09
21706;BME280;11014;53.076;18.208;2024-01-30T05:50:14;102829.03;;;2.39;68.04
21706;BME280;11014;53.076;18.208;2024-01-30T05:52:43;102828.53;;;2.46;67.74
21706;BME280;11014;53.076;18.208;2024-01-30T05:55:12;102826.59;;;2.48;67.75
21706;BME280;11014;53.076;18.208;2024-01-30T05:57:41;102825.38;;;2.52;67.74
21706;BME280;11014;53.076;18.208;2024-01-30T06:00:10;102827.78;;;2.55;67.87
21706;BME280;11014;53.076;18.208;2024-01-30T06:02:41;102828.25;;;2.60;67.67
21706;BME280;11014;53.076;18.208;2024-01-30T06:05:10;102826.19;;;2.63;67.78
21706;BME280;11014;53.076;18.208;2024-01-30T06:07:38;102815.47;;;2.65;67.67
21706;BME280;11014;53.076;18.208;2024-01-30T06:10:09;102827.75;;;2.66;67.79
21706;BME280;11014;53.076;18.208;2024-01-30T06:12:38;102821.47;;;2.67;67.83
21706;BME280;11014;53.076;18.208;2024-01-30T06:15:07;102820.50;;;2.68;67.70
21706;BME280;11014;53.076;18.208;2024-01-30T06:17:37;102816.03;;;2.68;67.71
21706;BME280;11014;53.076;18.208;2024-01-30T06:20:06;102820.97;;;2.73;67.97
21706;BME280;11014;53.076;18.208;2024-01-30T06:22:35;102819.75;;;2.77;68.33
21706;BME280;11014;53.076;18.208;2024-01-30T06:25:04;102815.75;;;2.82;68.70
21706;BME280;11014;53.076;18.208;2024-01-30T06:27:32;102826.22;;;2.95;68.51
21706;BME280;11014;53.076;18.208;2024-01-30T06:30:04;102828.94;;;3.05;68.50
21706;BME280;11014;53.076;18.208;2024-01-30T06:32:32;102828.28;;;3.12;68.54
21706;BME280;11014;53.076;18.208;2024-01-30T06:35:03;102821.50;;;3.19;68.82
21706;BME280;11014;53.076;18.208;2024-01-30T06:37:37;102825.06;;;3.29;68.48
21706;BME280;11014;53.076;18.208;2024-01-30T06:40:06;102823.44;;;3.38;68.44
21706;BME280;11014;53.076;18.208;2024-01-30T06:42:35;102822.06;;;3.43;68.35
21706;BME280;11014;53.076;18.208;2024-01-30T06:45:05;102822.28;;;3.51;68.34
21706;BME280;11014;53.076;18.208;2024-01-30T06:47:35;102821.00;;;3.55;68.08
21706;BME280;11014;53.076;18.208;2024-01-30T06:50:04;102822.44;;;3.59;68.15
21706;BME280;11014;53.076;18.208;2024-01-30T06:52:33;102816.72;;;3.64;68.35
21706;BME280;11014;53.076;18.208;2024-01-30T06:55:02;102831.31;;;3.70;68.38
21706;BME280;11014;53.076;18.208;2024-01-30T06:57:31;102824.78;;;3.74;68.20
21706;BME280;11014;53.076;18.208;2024-01-30T07:00:00;102826.16;;;3.78;68.39
21706;BME280;11014;53.076;18.208;2024-01-30T07:02:29;102832.91;;;3.82;68.21
21706;BME280;11014;53.076;18.208;2024-01-30T07:04:58;102835.31;;;3.85;68.25
21706;BME280;11014;53.076;18.208;2024-01-30T07:07:27;102840.22;;;3.89;68.26
21706;BME280;11014;53.076;18.208;2024-01-30T07:10:07;102832.84;;;3.93;68.37
21706;BME280;11014;53.076;18.208;2024-01-30T07:12:36;102836.91;;;3.97;68.29
21706;BME280;11014;53.076;18.208;2024-01-30T07:15:05;102838.31;;;4.01;68.49
21706;BME280;11014;53.076;18.208;2024-01-30T07:17:36;102837.06;;;4.05;68.52
21706;BME280;11014;53.076;18.208;2024-01-30T07:20:06;102838.88;;;4.04;68.42
21706;BME280;11014;53.076;18.208;2024-01-30T07:22:36;102838.63;;;4.07;68.41
21706;BME280;11014;53.076;18.208;2024-01-30T07:25:05;102832.91;;;4.12;68.48
21706;BME280;11014;53.076;18.208;2024-01-30T07:27:34;102827.19;;;4.16;68.66
21706;BME280;11014;53.076;18.208;2024-01-30T07:30:04;102828.72;;;4.19;68.81
21706;BME280;11014;53.076;18.208;2024-01-30T07:32:33;102822.97;;;4.24;68.68
21706;BME280;11014;53.076;18.208;2024-01-30T07:35:01;102835.63;;;4.31;68.62
21706;BME280;11014;53.076;18.208;2024-01-30T07:37:36;102828.09;;;4.36;68.44
21706;BME280;11014;53.076;18.208;2024-01-30T07:40:08;102828.09;;;4.46;68.46
21706;BME280;11014;53.076;18.208;2024-01-30T07:42:40;102823.34;;;4.49;68.54
21706;BME280;11014;53.076;18.208;2024-01-30T07:45:09;102824.75;;;4.53;68.35
21706;BME280;11014;53.076;18.208;2024-01-30T07:47:38;102831.22;;;4.60;68.61
21706;BME280;11014;53.076;18.208;2024-01-30T07:50:16;102828.84;;;4.67;68.75
21706;BME280;11014;53.076;18.208;2024-01-30T07:52:45;102826.03;;;4.68;68.26
21706;BME280;11014;53.076;18.208;2024-01-30T07:55:16;102829.13;;;4.73;68.59
21706;BME280;11014;53.076;18.208;2024-01-30T07:57:44;102832.34;;;4.77;68.22
21706;BME280;11014;53.076;18.208;2024-01-30T08:00:14;102826.59;;;4.82;68.51
21706;BME280;11014;53.076;18.208;2024-01-30T08:02:43;102836.53;;;4.89;68.59
21706;BME280;11014;53.076;18.208;2024-01-30T08:05:13;102842.16;;;4.96;68.55
21706;BME280;11014;53.076;18.208;2024-01-30T08:07:43;102831.94;;;5.01;68.31
21706;BME280;11014;53.076;18.208;2024-01-30T08:10:12;102837.66;;;5.06;68.44
21706;BME280;11014;53.076;18.208;2024-01-30T08:12:43;102836.28;;;5.11;68.15
21706;BME280;11014;53.076;18.208;2024-01-30T08:15:13;102841.19;;;5.16;68.37
21706;BME280;11014;53.076;18.208;2024-01-30T08:17:42;102845.25;;;5.20;68.36
21706;BME280;11014;53.076;18.208;2024-01-30T08:20:11;102840.31;;;5.25;68.41
21706;BME280;11014;53.076;18.208;2024-01-30T08:22:40;102847.75;;;5.31;68.42
21706;BME280;11014;53.076;18.208;2024-01-30T08:25:09;102847.19;;;5.37;68.16
21706;BME280;11014;53.076;18.208;2024-01-30T08:27:38;102840.59;;;5.41;68.04
21706;BME280;11014;53.076;18.208;2024-01-30T08:30:07;102840.19;;;5.46;68.17
21706;BME280;11014;53.076;18.208;2024-01-30T08:32:36;102839.59;;;5.52;68.27
21706;BME280;11014;53.076;18.208;2024-01-30T08:35:31;102829.72;;;5.71;67.98
21706;BME280;11014;53.076;18.208;2024-01-30T08:38:02;102829.31;;;5.66;67.77
21706;BME280;11014;53.076;18.208;2024-01-30T08:40:32;102832.38;;;5.71;67.72
21706;BME280;11014;53.076;18.208;2024-01-30T08:43:00;102827.16;;;5.79;67.95
21706;BME280;11014;53.076;18.208;2024-01-30T08:45:29;102829.97;;;5.87;67.51
21706;BME280;11014;53.076;18.208;2024-01-30T08:47:59;102830.09;;;5.95;67.85
21706;BME280;11014;53.076;18.208;2024-01-30T08:50:28;102831.88;;;6.05;67.77
21706;BME280;11014;53.076;18.208;2024-01-30T08:52:58;102827.19;;;6.16;67.70
21706;BME280;11014;53.076;18.208;2024-01-30T08:55:26;102833.47;;;6.25;67.23
21706;BME280;11014;53.076;18.208;2024-01-30T08:57:55;102835.38;;;6.32;67.02
21706;BME280;11014;53.076;18.208;2024-01-30T09:00:24;102830.31;;;6.39;66.91
21706;BME280;11014;53.076;18.208;2024-01-30T09:02:53;102829.38;;;6.48;66.89
21706;BME280;11014;53.076;18.208;2024-01-30T09:05:22;102837.47;;;6.56;66.78
21706;BME280;11014;53.076;18.208;2024-01-30T09:07:51;102831.25;;;6.65;66.63
21706;BME280;11014;53.076;18.208;2024-01-30T09:10:19;102822.47;;;6.73;66.14
21706;BME280;11014;53.076;18.208;2024-01-30T09:12:49;102826.06;;;6.81;66.06
21706;BME280;11014;53.076;18.208;2024-01-30T09:15:19;102821.81;;;6.88;65.67
21706;BME280;11014;53.076;18.208;2024-01-30T09:17:49;102816.53;;;6.96;65.26
21706;BME280;11014;53.076;18.208;2024-01-30T09:20:19;102818.28;;;7.05;65.50
21706;BME280;11014;53.076;18.208;2024-01-30T09:22:52;102808.34;;;7.15;65.67
21706;BME280;11014;53.076;18.208;2024-01-30T09:25:22;102818.09;;;7.25;65.40
21706;BME280;11014;53.076;18.208;2024-01-30T09:27:50;102807.41;;;7.25;63.88
21706;BME280;11014;53.076;18.208;2024-01-30T09:30:19;102809.81;;;7.36;64.47
21706;BME280;11014;53.076;18.208;2024-01-30T09:32:47;102807.50;;;7.41;63.35
21706;BME280;11014;53.076;18.208;2024-01-30T09:35:16;102809.44;;;7.48;63.01
21706;BME280;11014;53.076;18.208;2024-01-30T09:37:45;102805.28;;;7.54;62.70
21706;BME280;11014;53.076;18.208;2024-01-30T09:40:17;102809.16;;;7.59;62.15
21706;BME280;11014;53.076;18.208;2024-01-30T09:42:47;102805.84;;;7.65;62.06
21706;BME280;11014;53.076;18.208;2024-01-30T09:45:19;102804.91;;;7.74;61.84
21706;BME280;11014;53.076;18.208;2024-01-30T09:47:48;102808.78;;;7.80;61.74
21706;BME280;11014;53.076;18.208;2024-01-30T09:50:18;102806.78;;;7.82;60.72
21706;BME280;11014;53.076;18.208;2024-01-30T09:52:47;102801.31;;;7.92;60.49
21706;BME280;11014;53.076;18.208;2024-01-30T09:55:16;102802.19;;;8.00;60.29
21706;BME280;11014;53.076;18.208;2024-01-30T09:57:45;102806.22;;;8.04;59.31
21706;BME280;11014;53.076;18.208;2024-01-30T10:00:14;102794.22;;;8.16;59.37
21706;BME280;11014;53.076;18.208;2024-01-30T10:02:44;102792.25;;;8.26;58.72
21706;BME280;11014;53.076;18.208;2024-01-30T10:05:15;102785.28;;;8.42;58.72
21706;BME280;11014;53.076;18.208;2024-01-30T10:07:56;102781.50;;;8.60;58.37
21706;BME280;11014;53.076;18.208;2024-01-30T10:10:25;102784.31;;;8.67;57.93
21706;BME280;11014;53.076;18.208;2024-01-30T10:12:54;102775.31;;;8.76;57.87
21706;BME280;11014;53.076;18.208;2024-01-30T10:15:24;102766.59;;;8.82;57.14
21706;BME280;11014;53.076;18.208;2024-01-30T10:17:53;102766.94;;;8.87;56.85
21706;BME280;11014;53.076;18.208;2024-01-30T10:20:24;102763.22;;;8.88;56.44
21706;BME280;11014;53.076;18.208;2024-01-30T10:22:53;102756.72;;;8.99;56.35
21706;BME280;11014;53.076;18.208;2024-01-30T10:25:22;102762.22;;;9.13;55.57
21706;BME280;11014;53.076;18.208;2024-01-30T10:27:55;102753.16;;;9.30;55.34
21706;BME280;11014;53.076;18.208;2024-01-30T10:30:26;102750.63;;;9.45;54.72
21706;BME280;11014;53.076;18.208;2024-01-30T10:32:56;102755.44;;;9.58;54.52
21706;BME280;11014;53.076;18.208;2024-01-30T10:35:28;102744.69;;;9.66;54.46
21706;BME280;11014;53.076;18.208;2024-01-30T10:37:57;102750.38;;;9.71;53.68
21706;BME280;11014;53.076;18.208;2024-01-30T10:40:28;102742.50;;;9.69;52.78
21706;BME280;11014;53.076;18.208;2024-01-30T10:43:09;102747.81;;;9.85;53.14
21706;BME280;11014;53.076;18.208;2024-01-30T10:45:40;102739.22;;;9.90;52.97
21706;BME280;11014;53.076;18.208;2024-01-30T10:48:13;102749.25;;;9.96;52.64
21706;BME280;11014;53.076;18.208;2024-01-30T10:51:04;102748.91;;;9.99;52.01
21706;BME280;11014;53.076;18.208;2024-01-30T10:53:34;102751.91;;;10.04;51.94
21706;BME280;11014;53.076;18.208;2024-01-30T10:56:04;102755.25;;;10.06;51.21
21706;BME280;11014;53.076;18.208;2024-01-30T10:58:33;102743.53;;;9.99;50.96
21706;BME280;11014;53.076;18.208;2024-01-30T11:01:07;102747.50;;;10.11;50.77
21706;BME280;11014;53.076;18.208;2024-01-30T11:03:36;102744.28;;;10.24;51.17
21706;BME280;11014;53.076;18.208;2024-01-30T11:06:10;102742.09;;;10.27;50.33
21706;BME280;11014;53.076;18.208;2024-01-30T11:08:39;102747.81;;;10.24;50.31
21706;BME280;11014;53.076;18.208;2024-01-30T11:11:51;102749.13;;;10.28;49.95
21706;BME280;11014;53.076;18.208;2024-01-30T11:14:28;102740.06;;;10.29;49.80
21706;BME280;11014;53.076;18.208;2024-01-30T11:17:27;102735.59;;;10.44;49.96
21706;BME280;11014;53.076;18.208;2024-01-30T11:19:59;102737.56;;;10.50;49.66
21706;BME280;11014;53.076;18.208;2024-01-30T11:22:30;102726.81;;;10.50;49.54
21706;BME280;11014;53.076;18.208;2024-01-30T11:24:59;102731.00;;;10.53;49.67
21706;BME280;11014;53.076;18.208;2024-01-30T11:27:53;102723.47;;;10.48;48.97
21706;BME280;11014;53.076;18.208;2024-01-30T11:30:33;102728.16;;;10.54;48.94
21706;BME280;11014;53.076;18.208;2024-01-30T11:33:08;102719.53;;;10.59;49.24
21706;BME280;11014;53.076;18.208;2024-01-30T11:35:44;102714.03;;;10.75;49.17
21706;BME280;11014;53.076;18.208;2024-01-30T11:38:28;102709.50;;;10.76;48.80
21706;BME280;11014;53.076;18.208;2024-01-30T11:41:09;102712.59;;;10.87;49.27
21706;BME280;11014;53.076;18.208;2024-01-30T11:43:38;102708.03;;;10.88;48.95
21706;BME280;11014;53.076;18.208;2024-01-30T11:46:07;102712.03;;;10.92;48.89
21706;BME280;11014;53.076;18.208;2024-01-30T11:48:36;102707.25;;;11.16;48.55
21706;BME280;11014;53.076;18.208;2024-01-30T11:51:06;102706.44;;;11.45;48.07
21706;BME280;11014;53.076;18.208;2024-01-30T11:53:36;102699.03;;;11.76;47.48
21706;BME280;11014;53.076;18.208;2024-01-30T11:56:08;102698.59;;;12.09;46.88
21706;BME280;11014;53.076;18.208;2024-01-30T11:58:37;102695.41;;;12.20;46.31
21706;BME280;11014;53.076;18.208;2024-01-30T12:01:06;102694.19;;;12.43;46.58
21706;BME280;11014;53.076;18.208;2024-01-30T12:03:35;102687.81;;;12.72;45.92
21706;BME280;11014;53.076;18.208;2024-01-30T12:06:04;102693.72;;;12.82;45.76
21706;BME280;11014;53.076;18.208;2024-01-30T12:08:33;102691.06;;;13.10;45.58
21706;BME280;11014;53.076;18.208;2024-01-30T12:11:01;102677.38;;;13.46;44.43
21706;BME280;11014;53.076;18.208;2024-01-30T12:13:33;102682.44;;;13.62;43.76
21706;BME280;11014;53.076;18.208;2024-01-30T12:16:03;102678.22;;;14.00;43.48
21706;BME280;11014;53.076;18.208;2024-01-30T12:18:31;102669.41;;;14.39;42.83
21706;BME280;11014;53.076;18.208;2024-01-30T12:21:01;102663.19;;;14.71;41.66
21706;BME280;11014;53.076;18.208;2024-01-30T12:23:30;102661.69;;;14.95;40.79
21706;BME280;11014;53.076;18.208;2024-01-30T12:26:00;102663.16;;;15.04;40.78
21706;BME280;11014;53.076;18.208;2024-01-30T12:28:29;102660.00;;;15.27;40.61
21706;BME280;11014;53.076;18.208;2024-01-30T12:31:02;102660.34;;;15.57;40.29
21706;BME280;11014;53.076;18.208;2024-01-30T12:33:31;102657.44;;;15.96;40.06
21706;BME280;11014;53.076;18.208;2024-01-30T12:36:26;102655.22;;;16.55;38.41
21706;BME280;11014;53.076;18.208;2024-01-30T12:38:57;102647.63;;;16.64;38.29
21706;BME280;11014;53.076;18.208;2024-01-30T12:41:44;102645.88;;;16.94;37.62
21706;BME280;11014;53.076;18.208;2024-01-30T12:44:15;102636.78;;;17.25;37.99
21706;BME280;11014;53.076;18.208;2024-01-30T12:46:44;102639.41;;;17.56;37.41
21706;BME280;11014;53.076;18.208;2024-01-30T12:49:15;102635.97;;;17.61;37.06
21706;BME280;11014;53.076;18.208;2024-01-30T12:51:44;102636.91;;;17.85;36.85
21706;BME280;11014;53.076;18.208;2024-01-30T12:54:13;102634.28;;;18.08;36.93
21706;BME280;11014;53.076;18.208;2024-01-30T12:56:46;102631.28;;;18.39;36.32
21706;BME280;11014;53.076;18.208;2024-01-30T12:59:15;102629.31;;;18.46;35.79
21706;BME280;11014;53.076;18.208;2024-01-30T13:01:44;102633.84;;;18.52;35.99
21706;BME280;11014;53.076;18.208;2024-01-30T13:04:13;102626.28;;;18.77;35.05